Skip Navigation LinksHome page > Weather > Current weather Skip Navigation Links

Current Weather

Waukegan Regional, Waukegan, Ill.

For information only: do not use for flight planning or navigation.
Latest weather
Observation time Friday, January 21, 2022 2:55 PM CST
Local time Friday, January 21, 2022 3:08 PM CST
Flight conditions Visual Meteorological Conditions
Winds
Wind direction South-Southwest (210°)
Wind speed 13 mph
Visibility 10 mi.
Sky condition
Ceiling unlimited
Sky clear
Temperature 25°F
Dewpoint 8°F
Altimeter 30.46 in.Hg
Pressure change last 3 hours0.06 in.Hg
Pressure falling more slowly
Derived measurements
Relative humidity 48%
Wind chill 14°F
Density altitude -2184 ft.
Sea-level pressure 30.53 in.Hg
Remarks
Automated weather observing station with precipitation discriminator.
METAR KUGN 212055Z 21011KT 10SM CLR M04/M13 A3046 RMK AO2 SLP338 T10391133 56019

Settings

Location code

InnerDrive.Weather 4.0.6770.0 Release CLR 4.0.30319.42000
Copyright ©2018 Inner Drive Technology. All rights reserved. Portions Copyright ©1986-2018 David Braverman.

Find weather

Site navigation


Skip Navigation Links

Place info

Page info

PayPal - The safer, easier way to pay online!

Return home.

Copyright ©2022 Inner Drive Technology. Purveyors of fine, hand-crafted computer software. Page printed 2022-01-21T21:08:49 UTC.